Metar Cercanos

 

LEPA - Palma De Mallorc, Spain
Distance from station: ONO 38km
Actualización: Sat, 27-Feb-2021 10:30pm CET
Few Clouds
Few Clouds
 Viento del E
Viento: E 7 km/h
Temperatura: 8°C
Sensación frio: 7°C
Rocío: 6°C
Humedad: 87%
Barómetro: 1025 hPa
Clouds: Few Clouds
Visibility: 10 km
Cloud details: Few Clouds 1372 m
2021/02/27 21:30 LEPA 272130Z 08004KT 9999 FEW045 08/06 Q1025 NOSIG
LEMH - Mahon/Menorca Is, Spain
Distance from station: ENE 105km
Actualización: Sat, 27-Feb-2021 10:30pm CET
Despejado
Despejado
 Viento del N
Viento: N 15 km/h
Temperatura: 9°C
Sensación frio: 7°C
Rocío: 7°C
Humedad: 87%
Barómetro: 1024 hPa
Resumen: Despejado
Visibility: greater than 10 km
2021/02/27 21:30 LEMH 272130Z AUTO 01008KT CAVOK 09/07 Q1024
 
LEIB - Ibiza/Es Codola, Spain
Distance from station: OSO 165km
Actualización: Sat, 27-Feb-2021 10:30pm CET
Few Clouds
Few Clouds
 Viento del E
Viento: E 17 km/h
Temperatura: 14°C
Rocío: 10°C
Humedad: 77%
Barómetro: 1023 hPa
Clouds: Few Clouds
Visibility: 10 km
Cloud details: Few Clouds 610 m
2021/02/27 21:30 LEIB 272130Z 08009KT 9999 FEW020 14/10 Q1023 NOSIG
LEBL - Barcelona Airpor, Spain
Distance from station: NNO 225km
Actualización: Sat, 27-Feb-2021 10:30pm CET
Few Clouds
Few Clouds
 Viento del varies
Viento: varies 2 km/h
Temperatura: 13°C
Rocío: 10°C
Humedad: 82%
Barómetro: 1025 hPa
Clouds: Few Clouds
Visibility: 10 km
Cloud details: Few Clouds 1067 m
2021/02/27 21:30 LEBL 272130Z VRB01KT 9999 FEW035 13/10 Q1025 NOSIG
 
LEVC - Valencia (civ/Mi, Spain
Distance from station: NO 188km
Actualización: Sat, 27-Feb-2021 10:30pm CET
Few Clouds
Few Clouds
 Viento del N
Viento: N 6 km/h
Temperatura: 12°C
Rocío: 10°C
Humedad: 88%
Barómetro: 1024 hPa
Clouds: Few Clouds
Visibility: 10 km
Cloud details: Few Clouds 457 m
2021/02/27 21:30 LEVC 272130Z 01003KT 9999 FEW015 12/10 Q1024 NOSIG
LEGE - Gerona/Costa Bra, Spain
Distance from station: N 276km
Actualización: Sat, 27-Feb-2021 10:30pm CET
Few Clouds
Few Clouds
 Viento del NNO
Viento: NNO 6 km/h
Temperatura: 10°C
Rocío: 7°C
Humedad: 82%
Barómetro: 1025 hPa
Clouds: Few Clouds
Visibility: 10 km
Cloud details: Few Clouds 1524 m
2021/02/27 21:30 LEGE 272130Z 33003KT 290V030 9999 FEW050 10/07 Q1025
 
LEAL - Alicante/El Alte, Spain
Distance from station: OSO 344km
Actualización: Sat, 27-Feb-2021 10:30pm CET
Parcialmente nuboso
Parcialmente nuboso
 Viento del N
Viento: N 11 km/h
Temperatura: 12°C
Rocío: 8°C
Humedad: 77%
Barómetro: 1023 hPa
Clouds: Parcialmente nuboso
Visibility: 10 km
Cloud details: Parcialmente nuboso 549 m
2021/02/27 21:30 LEAL 272130Z 36006KT 9999 SCT018 12/08 Q1023 NOSIG
LEAM - Almeria Airport, Spain
Distance from station: SSO 56km
Actualización: Sat, 27-Feb-2021 10:30pm CET
Despejado
Despejado
 Viento del ENE
Viento: ENE 11 km/h
Temperatura: 13°C
Rocío: 8°C
Humedad: 72%
Barómetro: 1021 hPa
Resumen: Despejado
Visibility: greater than 10 km
2021/02/27 21:30 LEAM 272130Z 06006KT CAVOK 13/08 Q1021
 
LEZG - Zaragoza (mil/Ci, Spain
Distance from station: NO 431km
Actualización: Sat, 27-Feb-2021 10:30pm CET
Despejado
Despejado
 Viento del O
Viento: O 22 km/h
Temperatura: 9°C
Sensación frio: 6°C
Rocío: 3°C
Humedad: 66%
Barómetro: 1024 hPa
Resumen: Despejado
Visibility: greater than 10 km
2021/02/27 21:30 LEZG 272130Z 28012KT CAVOK 09/03 Q1024
LEMD - Madrid/Barajas, Spain
Distance from station: ONO 234km
Actualización: Sat, 27-Feb-2021 10:30pm CET
Despejado
Despejado
 Viento del NO
Viento: NO 6 km/h
Temperatura: 9°C
Rocío: 5°C
Humedad: 76%
Barómetro: 1021 hPa
Resumen: Despejado
Visibility: greater than 10 km
2021/02/27 21:30 LEMD 272130Z 31003KT 290V350 CAVOK 09/05 Q1021 NOSIG
 
LEGR - Granada Airport, Spain
Distance from station: OSO 62km
Actualización: Sat, 27-Feb-2021 10:30pm CET
Parcialmente nuboso
Parcialmente nuboso
 Viento del OSO
Viento: OSO 4 km/h
Temperatura: 7°C
Rocío: 6°C
Humedad: 93%
Barómetro: 1021 hPa
Clouds: Parcialmente nuboso
Visibility: 8 km
2021/02/27 21:30 LEGR 272130Z 24002KT 8000 NSC 07/06 Q1021
LEMG - Malaga (civ/Mil), Spain
Distance from station: OSO 227km
Actualización: Sat, 27-Feb-2021 10:30pm CET
Muy nuboso
Muy nuboso
 Viento del ESE
Viento: ESE 20 km/h
Temperatura: 14°C
Rocío: 10°C
Humedad: 77%
Barómetro: 1021 hPa
Clouds: Muy nuboso
Visibility: 10 km
Cloud details: Few Clouds 610 m
Muy nuboso 1372 m
2021/02/27 21:30 LEMG 272130Z 11011KT 080V140 9999 FEW020 BKN045 14/10 Q1021 NOSIG
 
LEZL - Sevilla (civ/Mil, Spain
Distance from station: S 318km
Actualización: Sat, 27-Feb-2021 10:30pm CET
Despejado
Despejado
 Viento del ENE
Viento: ENE 7 km/h
Temperatura: 12°C
Rocío: 9°C
Humedad: 82%
Barómetro: 1020 hPa
Resumen: Despejado
Visibility: greater than 10 km
2021/02/27 21:30 LEZL 272130Z 07004KT CAVOK 12/09 Q1020 NOSIG
LEVT - Vitoria, Spain
Distance from station: NO 226km
Actualización: Sat, 27-Feb-2021 10:30pm CET
Cubierto
Cubierto
 Viento del N
Viento: N 9 km/h
Temperatura: 6°C
Sensación frio: 4°C
Rocío: 3°C
Humedad: 81%
Barómetro: 1027 hPa
Clouds: Cubierto
Visibility: 10 km
Cloud details: Muy nuboso 701 m
Cubierto 853 m
2021/02/27 21:30 LEVT 272130Z 01005KT 350V050 9999 BKN023 OVC028 06/03 Q1027
 
LEBB - Bilbao/Sondica, Spain
Distance from station: NNO 235km
Actualización: Sat, 27-Feb-2021 10:30pm CET
Cubierto
Cubierto
 Viento del calm
Viento: Calma
Temperatura: 9°C
Rocío: 6°C
Humedad: 82%
Barómetro: 1029 hPa
Clouds: Cubierto
Visibility: 10 km
Cloud details: Parcialmente nuboso 823 m
Cubierto 1372 m
2021/02/27 21:30 LEBB 272130Z 00000KT 9999 SCT027 OVC045 09/06 Q1029 NOSIG
LESO - San Sebastian/Fu, Spain
Distance from station: N 231km
Actualización: Sat, 27-Feb-2021 10:30pm CET
Parcialmente nuboso
Parcialmente nuboso
 Viento del SO
Viento: SO 9 km/h
Temperatura: 10°C
Sensación frio: 9°C
Rocío: 5°C
Humedad: 71%
Barómetro: 1028 hPa
Clouds: Parcialmente nuboso
Visibility: 10 km
Cloud details: Few Clouds 1341 m
Parcialmente nuboso 1524 m
2021/02/27 21:30 LESO 272130Z AUTO 23005KT 190V270 9999 FEW044 SCT050 10/05 Q1028
 
LEVD - Valladolid(Mil/C, Spain
Distance from station: ONO 239km
Actualización: Sat, 27-Feb-2021 10:30pm CET
Despejado
Despejado
 Viento del NE
Viento: NE 17 km/h
Temperatura: 5°C
Sensación frio: 2°C
Rocío: 0°C
Humedad: 70%
Barómetro: 1023 hPa
Resumen: Despejado
Visibility: greater than 10 km
2021/02/27 21:30 LEVD 272130Z AUTO 05009KT CAVOK 05/00 Q1023
LESA - Salamanca (civ/M, Spain
Distance from station: ONO 349km
Actualización: Sat, 27-Feb-2021 10:30pm CET
Despejado
Despejado
 Viento del E
Viento: E 13 km/h
Temperatura: 7°C
Sensación frio: 5°C
Rocío: 2°C
Humedad: 71%
Barómetro: 1023 hPa
Clouds: Despejado
Visibility: 9 km
2021/02/27 21:30 LESA 272130Z AUTO 08007KT 050V110 9000 NCD 07/02 Q1023
 
LEXJ - Santander/Paraya, Spain
Distance from station: NNO 247km
Actualización: Sat, 27-Feb-2021 10:30pm CET
Muy nuboso
Muy nuboso
 Viento del varies
Viento: varies 4 km/h
Temperatura: 9°C
Rocío: 6°C
Humedad: 82%
Barómetro: 1029 hPa
Clouds: Muy nuboso
Visibility: 10 km
Cloud details: Muy nuboso 914 m
2021/02/27 21:30 LEXJ 272130Z VRB02KT 9999 BKN030 09/06 Q1029
LEAS - Asturias/Aviles, Spain
Distance from station: NO 214km
Actualización: Sat, 27-Feb-2021 10:30pm CET
Parcialmente nuboso
Parcialmente nuboso
 Viento del ESE
Viento: ESE 13 km/h
Temperatura: 8°C
Sensación frio: 6°C
Rocío: 4°C
Humedad: 76%
Barómetro: 1028 hPa
Clouds: Parcialmente nuboso
Visibility: 10 km
Cloud details: Parcialmente nuboso 671 m
2021/02/27 21:30 LEAS 272130Z 12007KT 090V150 9999 SCT022 08/04 Q1028 NOSIG
 
LECO - La Coruna/Alvedr, Spain
Distance from station: ONO 222km
Actualización: Sat, 27-Feb-2021 10:30pm CET
Despejado
Despejado
 Viento del ESE
Viento: ESE 7 km/h
Temperatura: 10°C
Sensación frio: 9°C
Rocío: 5°C
Humedad: 71%
Barómetro: 1024 hPa
Resumen: Despejado
Visibility: greater than 10 km
2021/02/27 21:30 LECO 272130Z 11004KT CAVOK 10/05 Q1024 NOSIG
LEVX - Vigo/Peinador, Spain
Distance from station: O 214km
Actualización: Sat, 27-Feb-2021 10:30pm CET
Despejado
Despejado
 Viento del NE
Viento: NE 6 km/h
Temperatura: 13°C
Rocío: 10°C
Humedad: 82%
Barómetro: 1021 hPa
Resumen: Despejado
Visibility: greater than 10 km
2021/02/27 21:30 LEVX 272130Z 04003KT 360V060 CAVOK 13/10 Q1021 NOSIG